sensor_id;sensor_type;location;lat;lon;timestamp;temperature;humidity
15574;DHT22;7888;46.748;8.102;2022-12-01T00:01:12;8.90;55.80
15574;DHT22;7888;46.748;8.102;2022-12-01T00:03:39;8.90;55.80
15574;DHT22;7888;46.748;8.102;2022-12-01T00:06:08;8.90;55.90
15574;DHT22;7888;46.748;8.102;2022-12-01T00:08:36;8.90;56.00
15574;DHT22;7888;46.748;8.102;2022-12-01T00:11:08;8.90;56.00
15574;DHT22;7888;46.748;8.102;2022-12-01T00:13:36;8.90;56.00
15574;DHT22;7888;46.748;8.102;2022-12-01T00:16:13;8.90;56.00
15574;DHT22;7888;46.748;8.102;2022-12-01T00:18:40;8.90;56.20
15574;DHT22;7888;46.748;8.102;2022-12-01T00:21:14;8.90;56.00
15574;DHT22;7888;46.748;8.102;2022-12-01T00:23:46;8.90;56.10
15574;DHT22;7888;46.748;8.102;2022-12-01T00:26:14;8.90;56.00
15574;DHT22;7888;46.748;8.102;2022-12-01T00:28:42;8.90;56.00
15574;DHT22;7888;46.748;8.102;2022-12-01T00:31:09;8.90;56.10
15574;DHT22;7888;46.748;8.102;2022-12-01T00:33:37;8.90;56.10
15574;DHT22;7888;46.748;8.102;2022-12-01T00:36:04;8.90;56.10
15574;DHT22;7888;46.748;8.102;2022-12-01T00:38:31;8.90;56.00
15574;DHT22;7888;46.748;8.102;2022-12-01T00:40:57;8.90;55.90
15574;DHT22;7888;46.748;8.102;2022-12-01T00:43:23;8.90;55.80
15574;DHT22;7888;46.748;8.102;2022-12-01T00:45:50;8.90;55.90
15574;DHT22;7888;46.748;8.102;2022-12-01T00:48:16;8.80;55.90
15574;DHT22;7888;46.748;8.102;2022-12-01T00:50:42;8.90;56.00
15574;DHT22;7888;46.748;8.102;2022-12-01T00:53:09;8.80;56.10
15574;DHT22;7888;46.748;8.102;2022-12-01T00:55:35;8.90;56.10
15574;DHT22;7888;46.748;8.102;2022-12-01T00:58:01;8.90;56.10
15574;DHT22;7888;46.748;8.102;2022-12-01T01:00:27;8.80;56.10
15574;DHT22;7888;46.748;8.102;2022-12-01T01:02:52;8.90;56.10
15574;DHT22;7888;46.748;8.102;2022-12-01T01:05:18;8.80;56.00
15574;DHT22;7888;46.748;8.102;2022-12-01T01:07:44;8.80;56.00
15574;DHT22;7888;46.748;8.102;2022-12-01T01:10:10;8.80;55.80
15574;DHT22;7888;46.748;8.102;2022-12-01T01:12:36;8.90;55.80
15574;DHT22;7888;46.748;8.102;2022-12-01T01:15:04;8.80;55.70
15574;DHT22;7888;46.748;8.102;2022-12-01T01:17:32;8.90;55.80
15574;DHT22;7888;46.748;8.102;2022-12-01T01:19:58;8.80;55.80
15574;DHT22;7888;46.748;8.102;2022-12-01T01:22:23;8.90;55.90
15574;DHT22;7888;46.748;8.102;2022-12-01T01:24:49;8.90;55.90
15574;DHT22;7888;46.748;8.102;2022-12-01T01:27:15;8.90;55.90
15574;DHT22;7888;46.748;8.102;2022-12-01T01:29:41;8.90;55.80
15574;DHT22;7888;46.748;8.102;2022-12-01T01:32:07;8.90;55.70
15574;DHT22;7888;46.748;8.102;2022-12-01T01:34:33;8.90;55.60
15574;DHT22;7888;46.748;8.102;2022-12-01T01:36:59;8.80;55.50
15574;DHT22;7888;46.748;8.102;2022-12-01T01:39:25;8.80;55.50
15574;DHT22;7888;46.748;8.102;2022-12-01T01:41:51;8.80;55.40
15574;DHT22;7888;46.748;8.102;2022-12-01T01:44:55;8.80;55.40
15574;DHT22;7888;46.748;8.102;2022-12-01T01:47:27;8.80;55.60
15574;DHT22;7888;46.748;8.102;2022-12-01T01:50:11;8.80;55.60
15574;DHT22;7888;46.748;8.102;2022-12-01T01:52:45;8.80;55.70
15574;DHT22;7888;46.748;8.102;2022-12-01T01:55:13;8.80;55.80
15574;DHT22;7888;46.748;8.102;2022-12-01T01:57:41;8.70;55.80
15574;DHT22;7888;46.748;8.102;2022-12-01T02:00:15;8.80;56.00
15574;DHT22;7888;46.748;8.102;2022-12-01T02:02:44;8.80;56.10
15574;DHT22;7888;46.748;8.102;2022-12-01T02:05:17;8.70;56.10
15574;DHT22;7888;46.748;8.102;2022-12-01T02:07:47;8.70;56.00
15574;DHT22;7888;46.748;8.102;2022-12-01T02:10:15;8.70;56.00
15574;DHT22;7888;46.748;8.102;2022-12-01T02:16:13;8.70;56.10
15574;DHT22;7888;46.748;8.102;2022-12-01T02:28:08;8.70;56.20
15574;DHT22;7888;46.748;8.102;2022-12-01T02:30:44;8.70;56.10
15574;DHT22;7888;46.748;8.102;2022-12-01T02:36:25;8.70;56.00
15574;DHT22;7888;46.748;8.102;2022-12-01T02:39:14;8.70;56.00
15574;DHT22;7888;46.748;8.102;2022-12-01T02:42:03;8.70;56.20
15574;DHT22;7888;46.748;8.102;2022-12-01T02:44:42;8.70;56.10
15574;DHT22;7888;46.748;8.102;2022-12-01T02:47:14;8.70;56.20
15574;DHT22;7888;46.748;8.102;2022-12-01T02:49:46;8.70;56.10
15574;DHT22;7888;46.748;8.102;2022-12-01T02:52:15;8.70;56.20
15574;DHT22;7888;46.748;8.102;2022-12-01T02:54:44;8.70;56.20
15574;DHT22;7888;46.748;8.102;2022-12-01T02:57:13;8.70;56.20
15574;DHT22;7888;46.748;8.102;2022-12-01T02:59:43;8.70;56.20
15574;DHT22;7888;46.748;8.102;2022-12-01T03:05:20;8.70;56.30
15574;DHT22;7888;46.748;8.102;2022-12-01T03:11:17;8.70;56.10
15574;DHT22;7888;46.748;8.102;2022-12-01T03:16:34;8.70;56.10
15574;DHT22;7888;46.748;8.102;2022-12-01T03:22:17;8.70;56.10
15574;DHT22;7888;46.748;8.102;2022-12-01T03:24:48;8.70;55.90
15574;DHT22;7888;46.748;8.102;2022-12-01T03:27:21;8.70;55.80
15574;DHT22;7888;46.748;8.102;2022-12-01T03:29:54;8.60;55.70
15574;DHT22;7888;46.748;8.102;2022-12-01T03:32:32;8.60;55.70
15574;DHT22;7888;46.748;8.102;2022-12-01T03:35:19;8.60;55.70
15574;DHT22;7888;46.748;8.102;2022-12-01T03:38:05;8.60;55.70
15574;DHT22;7888;46.748;8.102;2022-12-01T03:40:42;8.60;55.70
15574;DHT22;7888;46.748;8.102;2022-12-01T03:43:14;8.60;55.70
15574;DHT22;7888;46.748;8.102;2022-12-01T03:46:17;8.60;55.70
15574;DHT22;7888;46.748;8.102;2022-12-01T03:48:49;8.60;55.70
15574;DHT22;7888;46.748;8.102;2022-12-01T03:51:56;8.60;55.70
15574;DHT22;7888;46.748;8.102;2022-12-01T03:54:22;8.50;55.70
15574;DHT22;7888;46.748;8.102;2022-12-01T03:56:59;8.50;55.40
15574;DHT22;7888;46.748;8.102;2022-12-01T03:59:29;8.50;55.50
15574;DHT22;7888;46.748;8.102;2022-12-01T04:02:00;8.50;55.60
15574;DHT22;7888;46.748;8.102;2022-12-01T04:04:26;8.50;55.50
15574;DHT22;7888;46.748;8.102;2022-12-01T04:06:52;8.60;55.60
15574;DHT22;7888;46.748;8.102;2022-12-01T04:09:18;8.50;55.50
15574;DHT22;7888;46.748;8.102;2022-12-01T04:11:43;8.50;55.40
15574;DHT22;7888;46.748;8.102;2022-12-01T04:14:28;8.60;55.50
15574;DHT22;7888;46.748;8.102;2022-12-01T04:16:54;8.60;55.50
15574;DHT22;7888;46.748;8.102;2022-12-01T04:19:20;8.60;55.50
15574;DHT22;7888;46.748;8.102;2022-12-01T04:21:46;8.60;55.50
15574;DHT22;7888;46.748;8.102;2022-12-01T04:24:12;8.60;55.70
15574;DHT22;7888;46.748;8.102;2022-12-01T04:26:39;8.60;55.70
15574;DHT22;7888;46.748;8.102;2022-12-01T04:29:08;8.60;55.80
15574;DHT22;7888;46.748;8.102;2022-12-01T04:31:35;8.60;55.90
15574;DHT22;7888;46.748;8.102;2022-12-01T04:34:01;8.60;55.80
15574;DHT22;7888;46.748;8.102;2022-12-01T04:36:32;8.60;55.80
15574;DHT22;7888;46.748;8.102;2022-12-01T04:38:59;8.60;55.90
15574;DHT22;7888;46.748;8.102;2022-12-01T04:41:25;8.60;55.80
15574;DHT22;7888;46.748;8.102;2022-12-01T04:43:52;8.60;55.60
15574;DHT22;7888;46.748;8.102;2022-12-01T04:46:19;8.60;55.50
15574;DHT22;7888;46.748;8.102;2022-12-01T04:48:46;8.60;55.50
15574;DHT22;7888;46.748;8.102;2022-12-01T04:51:12;8.60;55.60
15574;DHT22;7888;46.748;8.102;2022-12-01T04:53:38;8.60;55.50
15574;DHT22;7888;46.748;8.102;2022-12-01T04:56:04;8.60;55.50
15574;DHT22;7888;46.748;8.102;2022-12-01T04:58:32;8.60;55.50
15574;DHT22;7888;46.748;8.102;2022-12-01T05:01:06;8.60;55.50
15574;DHT22;7888;46.748;8.102;2022-12-01T05:03:39;8.60;55.50
15574;DHT22;7888;46.748;8.102;2022-12-01T05:06:09;8.60;55.40
15574;DHT22;7888;46.748;8.102;2022-12-01T05:08:40;8.60;55.40
15574;DHT22;7888;46.748;8.102;2022-12-01T05:11:07;8.50;55.40
15574;DHT22;7888;46.748;8.102;2022-12-01T05:13:41;8.50;55.40
15574;DHT22;7888;46.748;8.102;2022-12-01T05:16:28;8.50;55.30
15574;DHT22;7888;46.748;8.102;2022-12-01T05:18:59;8.50;55.40
15574;DHT22;7888;46.748;8.102;2022-12-01T05:21:46;8.50;55.40
15574;DHT22;7888;46.748;8.102;2022-12-01T05:24:13;8.50;55.50
15574;DHT22;7888;46.748;8.102;2022-12-01T05:26:41;8.50;55.60
15574;DHT22;7888;46.748;8.102;2022-12-01T05:29:08;8.50;55.60
15574;DHT22;7888;46.748;8.102;2022-12-01T05:31:35;8.50;55.70
15574;DHT22;7888;46.748;8.102;2022-12-01T05:34:01;8.50;55.70
15574;DHT22;7888;46.748;8.102;2022-12-01T05:36:27;8.50;55.80
15574;DHT22;7888;46.748;8.102;2022-12-01T05:38:53;8.50;55.80
15574;DHT22;7888;46.748;8.102;2022-12-01T05:41:19;8.50;55.80
15574;DHT22;7888;46.748;8.102;2022-12-01T05:43:45;8.50;55.90
15574;DHT22;7888;46.748;8.102;2022-12-01T05:46:11;8.50;55.90
15574;DHT22;7888;46.748;8.102;2022-12-01T05:48:37;8.50;55.90
15574;DHT22;7888;46.748;8.102;2022-12-01T05:51:11;8.50;55.90
15574;DHT22;7888;46.748;8.102;2022-12-01T05:53:38;8.50;56.00
15574;DHT22;7888;46.748;8.102;2022-12-01T05:56:05;8.50;56.00
15574;DHT22;7888;46.748;8.102;2022-12-01T05:58:32;8.50;56.00
15574;DHT22;7888;46.748;8.102;2022-12-01T06:00:58;8.50;56.00
15574;DHT22;7888;46.748;8.102;2022-12-01T06:03:24;8.50;55.90
15574;DHT22;7888;46.748;8.102;2022-12-01T06:05:50;8.50;55.90
15574;DHT22;7888;46.748;8.102;2022-12-01T06:08:16;8.50;55.90
15574;DHT22;7888;46.748;8.102;2022-12-01T06:10:42;8.50;56.00
15574;DHT22;7888;46.748;8.102;2022-12-01T06:13:08;8.50;56.00
15574;DHT22;7888;46.748;8.102;2022-12-01T06:15:34;8.50;56.00
15574;DHT22;7888;46.748;8.102;2022-12-01T06:18:00;8.50;55.90
15574;DHT22;7888;46.748;8.102;2022-12-01T06:20:26;8.50;55.80
15574;DHT22;7888;46.748;8.102;2022-12-01T06:22:52;8.50;55.80
15574;DHT22;7888;46.748;8.102;2022-12-01T06:25:18;8.50;55.80
15574;DHT22;7888;46.748;8.102;2022-12-01T06:27:44;8.50;55.80
15574;DHT22;7888;46.748;8.102;2022-12-01T06:30:10;8.50;55.80
15574;DHT22;7888;46.748;8.102;2022-12-01T06:32:36;8.50;55.90
15574;DHT22;7888;46.748;8.102;2022-12-01T06:35:02;8.50;55.70
15574;DHT22;7888;46.748;8.102;2022-12-01T06:37:28;8.50;55.80
15574;DHT22;7888;46.748;8.102;2022-12-01T06:39:54;8.50;55.90
15574;DHT22;7888;46.748;8.102;2022-12-01T06:42:20;8.50;55.90
15574;DHT22;7888;46.748;8.102;2022-12-01T06:44:46;8.50;55.80
15574;DHT22;7888;46.748;8.102;2022-12-01T06:47:12;8.50;55.80
15574;DHT22;7888;46.748;8.102;2022-12-01T06:49:37;8.50;55.80
15574;DHT22;7888;46.748;8.102;2022-12-01T06:52:04;8.50;55.90
15574;DHT22;7888;46.748;8.102;2022-12-01T06:54:29;8.50;55.90
15574;DHT22;7888;46.748;8.102;2022-12-01T06:56:55;8.50;56.00
15574;DHT22;7888;46.748;8.102;2022-12-01T06:59:22;8.50;55.90
15574;DHT22;7888;46.748;8.102;2022-12-01T07:01:49;8.50;55.90
15574;DHT22;7888;46.748;8.102;2022-12-01T07:04:15;8.50;55.90
15574;DHT22;7888;46.748;8.102;2022-12-01T07:06:41;8.50;55.90
15574;DHT22;7888;46.748;8.102;2022-12-01T07:09:06;8.50;55.80
15574;DHT22;7888;46.748;8.102;2022-12-01T07:11:32;8.50;55.70
15574;DHT22;7888;46.748;8.102;2022-12-01T07:14:00;8.50;55.60
15574;DHT22;7888;46.748;8.102;2022-12-01T07:16:26;8.50;55.50
15574;DHT22;7888;46.748;8.102;2022-12-01T07:18:52;8.50;55.50
15574;DHT22;7888;46.748;8.102;2022-12-01T07:21:18;8.50;55.50
15574;DHT22;7888;46.748;8.102;2022-12-01T07:23:44;8.50;55.50
15574;DHT22;7888;46.748;8.102;2022-12-01T07:26:15;8.50;55.50
15574;DHT22;7888;46.748;8.102;2022-12-01T07:28:43;8.50;55.50
15574;DHT22;7888;46.748;8.102;2022-12-01T07:31:14;8.50;55.60
15574;DHT22;7888;46.748;8.102;2022-12-01T07:33:42;8.50;55.60
15574;DHT22;7888;46.748;8.102;2022-12-01T07:36:08;8.50;55.60
15574;DHT22;7888;46.748;8.102;2022-12-01T07:38:36;8.50;55.60
15574;DHT22;7888;46.748;8.102;2022-12-01T07:41:10;8.50;55.50
15574;DHT22;7888;46.748;8.102;2022-12-01T07:43:38;8.50;55.60
15574;DHT22;7888;46.748;8.102;2022-12-01T07:46:18;8.50;55.50
15574;DHT22;7888;46.748;8.102;2022-12-01T07:48:45;8.50;55.40
15574;DHT22;7888;46.748;8.102;2022-12-01T07:51:13;8.50;55.50
15574;DHT22;7888;46.748;8.102;2022-12-01T07:53:44;8.50;55.50
15574;DHT22;7888;46.748;8.102;2022-12-01T07:56:11;8.50;55.60
15574;DHT22;7888;46.748;8.102;2022-12-01T07:58:38;8.50;55.60
15574;DHT22;7888;46.748;8.102;2022-12-01T08:01:16;8.50;55.60
15574;DHT22;7888;46.748;8.102;2022-12-01T08:03:43;8.50;55.70
15574;DHT22;7888;46.748;8.102;2022-12-01T08:06:10;8.50;55.70
15574;DHT22;7888;46.748;8.102;2022-12-01T08:08:38;8.50;55.70
15574;DHT22;7888;46.748;8.102;2022-12-01T08:11:08;8.50;56.00
15574;DHT22;7888;46.748;8.102;2022-12-01T08:13:36;8.50;56.10
15574;DHT22;7888;46.748;8.102;2022-12-01T08:16:08;8.60;56.10
15574;DHT22;7888;46.748;8.102;2022-12-01T08:18:36;8.60;56.10
15574;DHT22;7888;46.748;8.102;2022-12-01T08:21:05;8.60;56.10
15574;DHT22;7888;46.748;8.102;2022-12-01T08:23:32;8.60;55.90
15574;DHT22;7888;46.748;8.102;2022-12-01T08:26:03;8.60;55.90
15574;DHT22;7888;46.748;8.102;2022-12-01T08:28:41;8.70;56.00
15574;DHT22;7888;46.748;8.102;2022-12-01T08:33:49;8.70;55.60
15574;DHT22;7888;46.748;8.102;2022-12-01T08:36:16;8.70;55.40
15574;DHT22;7888;46.748;8.102;2022-12-01T08:38:44;8.70;55.50
15574;DHT22;7888;46.748;8.102;2022-12-01T08:41:11;8.70;55.50
15574;DHT22;7888;46.748;8.102;2022-12-01T08:43:38;8.70;55.60
15574;DHT22;7888;46.748;8.102;2022-12-01T08:46:06;8.70;55.50
15574;DHT22;7888;46.748;8.102;2022-12-01T08:48:33;8.70;55.40
15574;DHT22;7888;46.748;8.102;2022-12-01T08:51:04;8.70;55.50
15574;DHT22;7888;46.748;8.102;2022-12-01T08:53:40;8.70;55.60
15574;DHT22;7888;46.748;8.102;2022-12-01T08:58:41;8.80;55.70
15574;DHT22;7888;46.748;8.102;2022-12-01T09:01:13;8.80;55.70
15574;DHT22;7888;46.748;8.102;2022-12-01T09:03:41;8.80;55.70
15574;DHT22;7888;46.748;8.102;2022-12-01T09:06:13;8.80;55.70
15574;DHT22;7888;46.748;8.102;2022-12-01T09:08:45;8.90;55.70
15574;DHT22;7888;46.748;8.102;2022-12-01T09:11:17;8.90;55.60
15574;DHT22;7888;46.748;8.102;2022-12-01T09:13:44;8.90;55.40
15574;DHT22;7888;46.748;8.102;2022-12-01T09:16:13;8.90;55.40
15574;DHT22;7888;46.748;8.102;2022-12-01T09:18:42;9.00;55.30
15574;DHT22;7888;46.748;8.102;2022-12-01T09:21:15;9.00;55.30
15574;DHT22;7888;46.748;8.102;2022-12-01T09:23:42;9.00;55.30
15574;DHT22;7888;46.748;8.102;2022-12-01T09:26:09;9.00;55.30
15574;DHT22;7888;46.748;8.102;2022-12-01T09:28:36;9.00;55.30
15574;DHT22;7888;46.748;8.102;2022-12-01T09:31:07;9.10;55.30
15574;DHT22;7888;46.748;8.102;2022-12-01T09:33:35;9.10;55.30
15574;DHT22;7888;46.748;8.102;2022-12-01T09:36:02;9.10;55.90
15574;DHT22;7888;46.748;8.102;2022-12-01T09:38:30;9.10;55.30
15574;DHT22;7888;46.748;8.102;2022-12-01T09:41:06;9.20;55.20
15574;DHT22;7888;46.748;8.102;2022-12-01T09:43:42;9.20;55.10
15574;DHT22;7888;46.748;8.102;2022-12-01T09:46:17;9.20;54.90
15574;DHT22;7888;46.748;8.102;2022-12-01T09:48:50;9.30;54.90
15574;DHT22;7888;46.748;8.102;2022-12-01T09:51:21;9.30;54.70
15574;DHT22;7888;46.748;8.102;2022-12-01T09:53:51;9.30;54.50
15574;DHT22;7888;46.748;8.102;2022-12-01T09:56:24;9.30;54.40
15574;DHT22;7888;46.748;8.102;2022-12-01T09:59:06;9.40;54.30
15574;DHT22;7888;46.748;8.102;2022-12-01T10:01:40;9.40;54.10
15574;DHT22;7888;46.748;8.102;2022-12-01T10:04:19;9.40;54.30
15574;DHT22;7888;46.748;8.102;2022-12-01T10:07:02;9.40;54.30
15574;DHT22;7888;46.748;8.102;2022-12-01T10:09:35;9.40;54.20
15574;DHT22;7888;46.748;8.102;2022-12-01T10:12:15;9.40;54.30
15574;DHT22;7888;46.748;8.102;2022-12-01T10:14:45;9.40;54.20
15574;DHT22;7888;46.748;8.102;2022-12-01T10:17:39;9.40;54.20
15574;DHT22;7888;46.748;8.102;2022-12-01T10:26:13;9.50;54.10
15574;DHT22;7888;46.748;8.102;2022-12-01T10:32:12;9.60;54.00
15574;DHT22;7888;46.748;8.102;2022-12-01T10:34:44;9.60;53.80
15574;DHT22;7888;46.748;8.102;2022-12-01T10:37:18;9.60;54.20
15574;DHT22;7888;46.748;8.102;2022-12-01T10:39:48;9.60;54.00
15574;DHT22;7888;46.748;8.102;2022-12-01T10:42:47;9.60;54.00
15574;DHT22;7888;46.748;8.102;2022-12-01T10:45:25;9.70;53.70
15574;DHT22;7888;46.748;8.102;2022-12-01T10:48:19;9.70;54.20
15574;DHT22;7888;46.748;8.102;2022-12-01T10:50:55;9.70;54.00
15574;DHT22;7888;46.748;8.102;2022-12-01T10:53:38;9.70;54.10
15574;DHT22;7888;46.748;8.102;2022-12-01T10:56:15;9.70;54.10
15574;DHT22;7888;46.748;8.102;2022-12-01T10:58:47;9.70;53.80
15574;DHT22;7888;46.748;8.102;2022-12-01T11:01:25;9.70;53.90
15574;DHT22;7888;46.748;8.102;2022-12-01T11:03:58;9.70;53.70
15574;DHT22;7888;46.748;8.102;2022-12-01T11:06:29;9.70;53.70
15574;DHT22;7888;46.748;8.102;2022-12-01T11:08:59;9.70;53.70
15574;DHT22;7888;46.748;8.102;2022-12-01T11:11:33;9.70;53.60
15574;DHT22;7888;46.748;8.102;2022-12-01T11:14:16;9.80;53.70
15574;DHT22;7888;46.748;8.102;2022-12-01T11:16:47;9.80;53.60
15574;DHT22;7888;46.748;8.102;2022-12-01T11:22:01;9.80;53.40
15574;DHT22;7888;46.748;8.102;2022-12-01T11:27:21;9.80;53.30
15574;DHT22;7888;46.748;8.102;2022-12-01T11:30:34;9.80;53.40
15574;DHT22;7888;46.748;8.102;2022-12-01T11:32:52;9.80;53.50
15574;DHT22;7888;46.748;8.102;2022-12-01T11:35:28;9.80;53.30
15574;DHT22;7888;46.748;8.102;2022-12-01T11:38:00;9.80;53.80
15574;DHT22;7888;46.748;8.102;2022-12-01T11:40:34;9.80;53.10
15574;DHT22;7888;46.748;8.102;2022-12-01T11:43:27;9.80;53.10
15574;DHT22;7888;46.748;8.102;2022-12-01T11:45:58;9.70;52.80
15574;DHT22;7888;46.748;8.102;2022-12-01T11:48:31;9.70;53.00
15574;DHT22;7888;46.748;8.102;2022-12-01T11:53:32;9.60;53.00
15574;DHT22;7888;46.748;8.102;2022-12-01T11:56:21;9.60;53.00
15574;DHT22;7888;46.748;8.102;2022-12-01T11:58:58;9.60;53.10
15574;DHT22;7888;46.748;8.102;2022-12-01T12:04:43;9.60;53.70
15574;DHT22;7888;46.748;8.102;2022-12-01T12:19:20;9.60;52.90
15574;DHT22;7888;46.748;8.102;2022-12-01T12:28:56;9.70;52.70
15574;DHT22;7888;46.748;8.102;2022-12-01T12:31:53;9.70;52.60
15574;DHT22;7888;46.748;8.102;2022-12-01T12:37:41;9.70;52.90
15574;DHT22;7888;46.748;8.102;2022-12-01T12:46:39;9.60;52.80
15574;DHT22;7888;46.748;8.102;2022-12-01T12:57:41;9.60;52.60
15574;DHT22;7888;46.748;8.102;2022-12-01T13:00:16;9.60;52.70
15574;DHT22;7888;46.748;8.102;2022-12-01T13:02:53;9.60;53.00
15574;DHT22;7888;46.748;8.102;2022-12-01T13:05:25;9.60;52.80
15574;DHT22;7888;46.748;8.102;2022-12-01T13:14:01;9.60;52.80
15574;DHT22;7888;46.748;8.102;2022-12-01T13:16:39;9.60;52.80
15574;DHT22;7888;46.748;8.102;2022-12-01T13:19:16;9.60;52.80
15574;DHT22;7888;46.748;8.102;2022-12-01T13:21:48;9.60;52.70
15574;DHT22;7888;46.748;8.102;2022-12-01T13:24:18;9.60;52.90
15574;DHT22;7888;46.748;8.102;2022-12-01T13:26:51;9.60;52.90
15574;DHT22;7888;46.748;8.102;2022-12-01T13:29:22;9.60;52.80
15574;DHT22;7888;46.748;8.102;2022-12-01T13:31:52;9.60;52.70
15574;DHT22;7888;46.748;8.102;2022-12-01T13:34:25;9.60;52.60
15574;DHT22;7888;46.748;8.102;2022-12-01T13:36:55;9.60;52.60
15574;DHT22;7888;46.748;8.102;2022-12-01T13:39:36;9.60;52.60
15574;DHT22;7888;46.748;8.102;2022-12-01T13:42:18;9.60;52.20
15574;DHT22;7888;46.748;8.102;2022-12-01T13:44:59;9.60;52.40
15574;DHT22;7888;46.748;8.102;2022-12-01T13:47:52;9.60;52.30
15574;DHT22;7888;46.748;8.102;2022-12-01T14:06:39;9.60;52.30
15574;DHT22;7888;46.748;8.102;2022-12-01T14:14:41;9.50;52.40
15574;DHT22;7888;46.748;8.102;2022-12-01T14:17:29;9.50;52.40
15574;DHT22;7888;46.748;8.102;2022-12-01T14:22:44;9.50;52.30
15574;DHT22;7888;46.748;8.102;2022-12-01T14:27:48;9.40;52.50
15574;DHT22;7888;46.748;8.102;2022-12-01T14:38:50;9.40;52.40
15574;DHT22;7888;46.748;8.102;2022-12-01T14:41:25;9.40;52.60
15574;DHT22;7888;46.748;8.102;2022-12-01T14:44:06;9.40;52.50
15574;DHT22;7888;46.748;8.102;2022-12-01T14:46:47;9.40;52.40
15574;DHT22;7888;46.748;8.102;2022-12-01T14:49:46;9.40;52.50
15574;DHT22;7888;46.748;8.102;2022-12-01T14:54:56;9.40;52.50
15574;DHT22;7888;46.748;8.102;2022-12-01T14:57:33;9.40;52.40
15574;DHT22;7888;46.748;8.102;2022-12-01T15:02:31;9.40;52.60
15574;DHT22;7888;46.748;8.102;2022-12-01T15:05:12;9.40;52.60
15574;DHT22;7888;46.748;8.102;2022-12-01T15:07:43;9.40;52.40
15574;DHT22;7888;46.748;8.102;2022-12-01T15:10:22;9.40;52.70
15574;DHT22;7888;46.748;8.102;2022-12-01T15:13:26;9.30;52.60
15574;DHT22;7888;46.748;8.102;2022-12-01T15:16:00;9.40;52.50
15574;DHT22;7888;46.748;8.102;2022-12-01T15:18:29;9.40;52.60
15574;DHT22;7888;46.748;8.102;2022-12-01T15:21:21;9.40;52.70
15574;DHT22;7888;46.748;8.102;2022-12-01T15:24:18;9.30;52.50
15574;DHT22;7888;46.748;8.102;2022-12-01T15:26:47;9.30;52.10
15574;DHT22;7888;46.748;8.102;2022-12-01T15:32:13;9.30;52.50
15574;DHT22;7888;46.748;8.102;2022-12-01T15:34:44;9.30;52.70
15574;DHT22;7888;46.748;8.102;2022-12-01T15:37:18;9.30;52.70
15574;DHT22;7888;46.748;8.102;2022-12-01T15:39:52;9.20;52.70
15574;DHT22;7888;46.748;8.102;2022-12-01T15:42:29;9.20;52.70
15574;DHT22;7888;46.748;8.102;2022-12-01T15:45:21;9.20;52.70
15574;DHT22;7888;46.748;8.102;2022-12-01T15:47:49;9.20;52.60
15574;DHT22;7888;46.748;8.102;2022-12-01T15:50:34;9.20;52.70
15574;DHT22;7888;46.748;8.102;2022-12-01T15:55:48;9.10;52.40
15574;DHT22;7888;46.748;8.102;2022-12-01T15:58:20;9.10;52.60
15574;DHT22;7888;46.748;8.102;2022-12-01T16:01:03;9.10;52.60
15574;DHT22;7888;46.748;8.102;2022-12-01T16:06:28;9.10;52.50
15574;DHT22;7888;46.748;8.102;2022-12-01T16:09:17;9.10;52.60
15574;DHT22;7888;46.748;8.102;2022-12-01T16:15:12;9.00;52.20
15574;DHT22;7888;46.748;8.102;2022-12-01T16:17:52;9.00;52.30
15574;DHT22;7888;46.748;8.102;2022-12-01T16:20:40;9.00;52.30
15574;DHT22;7888;46.748;8.102;2022-12-01T16:23:17;9.00;52.30
15574;DHT22;7888;46.748;8.102;2022-12-01T16:25:47;8.90;52.30
15574;DHT22;7888;46.748;8.102;2022-12-01T16:28:27;8.90;52.40
15574;DHT22;7888;46.748;8.102;2022-12-01T16:30:56;8.90;52.40
15574;DHT22;7888;46.748;8.102;2022-12-01T16:33:24;8.90;52.50
15574;DHT22;7888;46.748;8.102;2022-12-01T16:35:52;8.80;52.60
15574;DHT22;7888;46.748;8.102;2022-12-01T16:38:22;8.80;52.60
15574;DHT22;7888;46.748;8.102;2022-12-01T16:40:51;8.90;52.60
15574;DHT22;7888;46.748;8.102;2022-12-01T16:43:23;8.80;52.60
15574;DHT22;7888;46.748;8.102;2022-12-01T16:46:00;8.80;52.60
15574;DHT22;7888;46.748;8.102;2022-12-01T16:48:28;8.80;52.70
15574;DHT22;7888;46.748;8.102;2022-12-01T16:50:55;8.80;52.80
15574;DHT22;7888;46.748;8.102;2022-12-01T16:53:25;8.70;52.70
15574;DHT22;7888;46.748;8.102;2022-12-01T16:55:56;8.70;52.80
15574;DHT22;7888;46.748;8.102;2022-12-01T16:58:27;8.80;52.90
15574;DHT22;7888;46.748;8.102;2022-12-01T17:00:53;8.70;53.00
15574;DHT22;7888;46.748;8.102;2022-12-01T17:03:24;8.70;53.00
15574;DHT22;7888;46.748;8.102;2022-12-01T17:05:52;8.70;53.10
15574;DHT22;7888;46.748;8.102;2022-12-01T17:08:18;8.70;53.20
15574;DHT22;7888;46.748;8.102;2022-12-01T17:10:46;8.70;53.20
15574;DHT22;7888;46.748;8.102;2022-12-01T17:13:15;8.70;53.30
15574;DHT22;7888;46.748;8.102;2022-12-01T17:15:43;8.70;53.30
15574;DHT22;7888;46.748;8.102;2022-12-01T17:18:12;8.70;53.20
15574;DHT22;7888;46.748;8.102;2022-12-01T17:20:40;8.70;53.10
15574;DHT22;7888;46.748;8.102;2022-12-01T17:23:06;8.70;53.10
15574;DHT22;7888;46.748;8.102;2022-12-01T17:25:32;8.70;53.20
15574;DHT22;7888;46.748;8.102;2022-12-01T17:27:58;8.70;53.30
15574;DHT22;7888;46.748;8.102;2022-12-01T17:30:24;8.70;53.40
15574;DHT22;7888;46.748;8.102;2022-12-01T17:32:50;8.70;53.50
15574;DHT22;7888;46.748;8.102;2022-12-01T17:35:15;8.70;54.10
15574;DHT22;7888;46.748;8.102;2022-12-01T17:37:41;8.70;53.50
15574;DHT22;7888;46.748;8.102;2022-12-01T17:40:11;8.70;53.60
15574;DHT22;7888;46.748;8.102;2022-12-01T17:42:40;8.70;53.60
15574;DHT22;7888;46.748;8.102;2022-12-01T17:45:07;8.70;53.60
15574;DHT22;7888;46.748;8.102;2022-12-01T17:47:34;8.70;53.70
15574;DHT22;7888;46.748;8.102;2022-12-01T17:50:00;8.70;53.70
15574;DHT22;7888;46.748;8.102;2022-12-01T17:52:26;8.70;53.70
15574;DHT22;7888;46.748;8.102;2022-12-01T17:54:51;8.70;53.70
15574;DHT22;7888;46.748;8.102;2022-12-01T17:57:19;8.70;53.70
15574;DHT22;7888;46.748;8.102;2022-12-01T17:59:45;8.70;53.70
15574;DHT22;7888;46.748;8.102;2022-12-01T18:02:11;8.70;53.70
15574;DHT22;7888;46.748;8.102;2022-12-01T18:04:37;8.70;53.70
15574;DHT22;7888;46.748;8.102;2022-12-01T18:07:04;8.70;53.50
15574;DHT22;7888;46.748;8.102;2022-12-01T18:09:30;8.70;54.00
15574;DHT22;7888;46.748;8.102;2022-12-01T18:11:56;8.70;53.30
15574;DHT22;7888;46.748;8.102;2022-12-01T18:14:23;8.60;53.20
15574;DHT22;7888;46.748;8.102;2022-12-01T18:16:50;8.60;53.20
15574;DHT22;7888;46.748;8.102;2022-12-01T18:19:16;8.60;53.20
15574;DHT22;7888;46.748;8.102;2022-12-01T18:21:42;8.60;53.30
15574;DHT22;7888;46.748;8.102;2022-12-01T18:24:08;8.60;53.30
15574;DHT22;7888;46.748;8.102;2022-12-01T18:26:36;8.60;53.30
15574;DHT22;7888;46.748;8.102;2022-12-01T18:29:07;8.60;53.30
15574;DHT22;7888;46.748;8.102;2022-12-01T18:31:36;8.60;53.10
15574;DHT22;7888;46.748;8.102;2022-12-01T18:34:04;8.60;53.00
15574;DHT22;7888;46.748;8.102;2022-12-01T18:36:33;8.60;53.00
15574;DHT22;7888;46.748;8.102;2022-12-01T18:39:00;8.60;53.00
15574;DHT22;7888;46.748;8.102;2022-12-01T18:41:27;8.60;52.90
15574;DHT22;7888;46.748;8.102;2022-12-01T18:43:53;8.60;52.90
15574;DHT22;7888;46.748;8.102;2022-12-01T18:46:19;8.60;52.90
15574;DHT22;7888;46.748;8.102;2022-12-01T18:48:49;8.60;52.90
15574;DHT22;7888;46.748;8.102;2022-12-01T18:51:17;8.60;53.00
15574;DHT22;7888;46.748;8.102;2022-12-01T18:53:44;8.60;53.10
15574;DHT22;7888;46.748;8.102;2022-12-01T18:56:10;8.60;53.10
15574;DHT22;7888;46.748;8.102;2022-12-01T18:58:37;8.60;53.10